Time;durP1;ratioP1;P1;durP2;ratioP2;P2;SDS_P1;SDS_P2;PMS_P1;PMS_P2;Temp;Humidity;BMP_temperature;BMP_pressure;BME280_temperature;BME280_humidity;BME280_pressure;Samples;Min_cycle;Max_cycle;Signal;HPM_P1;HPM_P2
2022/10/17 00:01:04;;;;;;;1.33;1.13;;;;;;;;;;5141202;27;20202;-67
2022/10/17 00:03:32;;;;;;;1.30;1.20;;;;;;;;;;5140964;27;20209;-68
2022/10/17 00:06:06;;;;;;;1.42;1.33;;;;;;;;;;5140367;27;20225;-68
2022/10/17 00:08:33;;;;;;;1.20;1.10;;;;;;;;;;5140395;27;20203;-68
2022/10/17 00:11:03;;;;;;;1.27;1.17;;;;;;;;;;5139730;27;20301;-69
2022/10/17 00:13:30;;;;;;;1.15;1.05;;;;;;;;;;5140304;27;20202;-68
2022/10/17 00:15:58;;;;;;;1.15;1.05;;;;;;;;;;5140316;27;20217;-68
2022/10/17 00:18:26;;;;;;;1.25;1.15;;;;;;;;;;5140149;27;20300;-68
2022/10/17 00:20:54;;;;;;;1.33;1.23;;;;;;;;;;5140102;27;20245;-68
2022/10/17 00:23:26;;;;;;;1.25;1.15;;;;;;;;;;5140268;27;20206;-68
2022/10/17 00:25:59;;;;;;;1.10;1.00;;;;;;;;;;5140422;27;20230;-68
2022/10/17 00:28:26;;;;;;;0.95;0.93;;;;;;;;;;5140140;27;20264;-67
2022/10/17 00:30:58;;;;;;;1.30;1.20;;;;;;;;;;5140553;27;20625;-68
2022/10/17 00:33:26;;;;;;;1.30;1.20;;;;;;;;;;5140310;27;20202;-68
2022/10/17 00:36:02;;;;;;;1.15;1.02;;;;;;;;;;5140175;27;20616;-67
2022/10/17 00:38:32;;;;;;;1.25;1.15;;;;;;;;;;5140269;27;20304;-67
2022/10/17 00:40:59;;;;;;;1.20;1.10;;;;;;;;;;5139801;27;20267;-67
2022/10/17 00:43:28;;;;;;;1.10;1.10;;;;;;;;;;5140055;27;20293;-68
2022/10/17 00:45:56;;;;;;;1.00;0.95;;;;;;;;;;5140022;27;20233;-68
2022/10/17 00:48:25;;;;;;;1.17;1.08;;;;;;;;;;5140367;27;20230;-68
2022/10/17 00:50:53;;;;;;;1.10;1.00;;;;;;;;;;5140232;27;20202;-67
2022/10/17 00:53:21;;;;;;;1.60;0.98;;;;;;;;;;5140432;27;20535;-67
2022/10/17 00:55:51;;;;;;;1.15;0.93;;;;;;;;;;5139920;27;20246;-67
2022/10/17 00:58:19;;;;;;;0.80;0.80;;;;;;;;;;5139871;27;20210;-67
2022/10/17 01:00:47;;;;;;;1.15;1.05;;;;;;;;;;5139771;27;20340;-68
2022/10/17 01:03:15;;;;;;;1.02;1.00;;;;;;;;;;5139869;27;20202;-67
2022/10/17 01:05:43;;;;;;;1.00;0.90;;;;;;;;;;5138591;27;20237;-68
2022/10/17 01:08:11;;;;;;;0.90;0.90;;;;;;;;;;5139954;27;20285;-68
2022/10/17 01:10:44;;;;;;;1.10;1.00;;;;;;;;;;5139187;27;20198;-67
2022/10/17 01:13:17;;;;;;;0.98;0.90;;;;;;;;;;5139393;27;20210;-67
2022/10/17 01:15:53;;;;;;;1.00;0.90;;;;;;;;;;5127554;27;20314;-68
2022/10/17 01:18:27;;;;;;;0.90;0.90;;;;;;;;;;5119013;28;20310;-67
2022/10/17 01:21:03;;;;;;;0.85;0.85;;;;;;;;;;5118694;28;20597;-67
2022/10/17 01:23:58;;;;;;;1.15;1.00;;;;;;;;;;5118954;28;20211;-67
2022/10/17 01:26:34;;;;;;;0.90;0.90;;;;;;;;;;5118434;28;20322;-67
2022/10/17 01:29:16;;;;;;;1.08;0.98;;;;;;;;;;5138710;27;20201;-68
2022/10/17 01:31:47;;;;;;;0.90;0.90;;;;;;;;;;5118455;28;20395;-67
2022/10/17 01:34:19;;;;;;;0.70;0.70;;;;;;;;;;5118598;28;20663;-67
2022/10/17 01:36:50;;;;;;;1.10;0.98;;;;;;;;;;5118851;28;20207;-66
2022/10/17 01:39:21;;;;;;;0.82;0.82;;;;;;;;;;5118515;28;20687;-68
2022/10/17 01:41:53;;;;;;;1.45;1.08;;;;;;;;;;5118359;28;20543;-67
2022/10/17 01:44:21;;;;;;;0.70;0.70;;;;;;;;;;5118566;28;20203;-68
2022/10/17 01:46:52;;;;;;;0.70;0.70;;;;;;;;;;5118308;28;20299;-66
2022/10/17 01:49:21;;;;;;;1.02;0.82;;;;;;;;;;5118316;28;20210;-67
2022/10/17 01:51:50;;;;;;;0.80;0.80;;;;;;;;;;5118388;28;20297;-67
2022/10/17 01:54:21;;;;;;;1.00;0.90;;;;;;;;;;5118635;28;20203;-67
2022/10/17 01:56:50;;;;;;;0.80;0.80;;;;;;;;;;5118132;28;20574;-67
2022/10/17 01:59:19;;;;;;;0.82;0.82;;;;;;;;;;5118664;28;20203;-67
2022/10/17 02:01:48;;;;;;;0.80;0.80;;;;;;;;;;5118712;28;20203;-67
2022/10/17 02:04:17;;;;;;;0.85;0.85;;;;;;;;;;5118568;28;20239;-67
2022/10/17 02:06:45;;;;;;;0.80;0.80;;;;;;;;;;5118380;28;20630;-67
2022/10/17 02:09:20;;;;;;;0.80;0.80;;;;;;;;;;5118546;28;20214;-67
2022/10/17 02:11:53;;;;;;;0.73;0.73;;;;;;;;;;5118230;28;20246;-67
2022/10/17 02:14:27;;;;;;;0.70;0.70;;;;;;;;;;5118122;28;20202;-67
2022/10/17 02:17:01;;;;;;;0.60;0.60;;;;;;;;;;5118783;28;20238;-67
2022/10/17 02:19:47;;;;;;;0.93;0.82;;;;;;;;;;5122363;28;20203;-67
2022/10/17 02:22:18;;;;;;;0.70;0.70;;;;;;;;;;5115388;28;20245;-68
2022/10/17 02:24:49;;;;;;;0.80;0.80;;;;;;;;;;5122280;28;20206;-67
2022/10/17 02:27:18;;;;;;;0.68;0.68;;;;;;;;;;5121905;28;20241;-68
2022/10/17 02:29:47;;;;;;;0.60;0.60;;;;;;;;;;5122412;28;20277;-67
2022/10/17 02:32:18;;;;;;;0.88;0.80;;;;;;;;;;5122310;28;20211;-68
2022/10/17 02:34:50;;;;;;;0.82;0.82;;;;;;;;;;5121979;28;20267;-68
2022/10/17 02:37:20;;;;;;;0.88;0.88;;;;;;;;;;5122063;28;20199;-67
2022/10/17 02:39:48;;;;;;;0.80;0.80;;;;;;;;;;5121124;28;20522;-68
2022/10/17 02:42:17;;;;;;;1.02;0.80;;;;;;;;;;5121161;28;20202;-67
2022/10/17 02:44:45;;;;;;;0.77;0.77;;;;;;;;;;5121051;28;20286;-68
2022/10/17 02:47:17;;;;;;;0.77;0.77;;;;;;;;;;5121059;28;20223;-67
2022/10/17 02:49:47;;;;;;;0.60;0.60;;;;;;;;;;5121374;28;20214;-67
2022/10/17 02:52:18;;;;;;;1.25;0.70;;;;;;;;;;5120915;28;20490;-68
2022/10/17 02:54:48;;;;;;;0.70;0.70;;;;;;;;;;5121720;28;20606;-67
2022/10/17 02:57:19;;;;;;;0.60;0.60;;;;;;;;;;5120949;28;20207;-67
2022/10/17 02:59:48;;;;;;;0.73;0.68;;;;;;;;;;5120959;28;20586;-67
2022/10/17 03:02:16;;;;;;;0.60;0.60;;;;;;;;;;5120638;28;20266;-67
2022/10/17 03:04:45;;;;;;;1.30;0.80;;;;;;;;;;5121106;28;20207;-67
2022/10/17 03:07:13;;;;;;;1.10;0.70;;;;;;;;;;5121018;28;20505;-68
2022/10/17 03:09:42;;;;;;;1.70;0.93;;;;;;;;;;5120904;28;20267;-68
2022/10/17 03:12:10;;;;;;;0.70;0.70;;;;;;;;;;5120807;28;20285;-67
2022/10/17 03:14:37;;;;;;;0.70;0.70;;;;;;;;;;5120773;28;20301;-67
2022/10/17 03:17:05;;;;;;;0.70;0.70;;;;;;;;;;5120187;28;20595;-68
2022/10/17 03:19:33;;;;;;;0.80;0.80;;;;;;;;;;5120163;28;20203;-68
2022/10/17 03:22:01;;;;;;;0.80;0.60;;;;;;;;;;5120482;28;20211;-68
2022/10/17 03:24:28;;;;;;;0.70;0.70;;;;;;;;;;5120056;28;20604;-67
2022/10/17 03:26:58;;;;;;;0.68;0.68;;;;;;;;;;5119511;28;20303;-68
2022/10/17 03:29:25;;;;;;;0.80;0.77;;;;;;;;;;5118883;28;20203;-67
2022/10/17 03:31:53;;;;;;;0.77;0.77;;;;;;;;;;5120748;28;20246;-67
2022/10/17 03:34:21;;;;;;;0.60;0.60;;;;;;;;;;5120416;28;20203;-68
2022/10/17 03:36:49;;;;;;;0.60;0.60;;;;;;;;;;5120079;28;20209;-67
2022/10/17 03:39:17;;;;;;;1.08;0.60;;;;;;;;;;5119993;28;20311;-67
2022/10/17 03:41:44;;;;;;;0.60;0.60;;;;;;;;;;5120111;28;20649;-67
2022/10/17 03:44:14;;;;;;;0.60;0.60;;;;;;;;;;5120031;28;20221;-67
2022/10/17 03:46:42;;;;;;;0.63;0.63;;;;;;;;;;5119895;28;20227;-67
2022/10/17 03:49:10;;;;;;;0.75;0.63;;;;;;;;;;5119470;28;20306;-68
2022/10/17 03:51:37;;;;;;;0.60;0.60;;;;;;;;;;5119403;28;20203;-67
2022/10/17 03:54:05;;;;;;;0.77;0.60;;;;;;;;;;5111741;28;20580;-68
2022/10/17 03:56:33;;;;;;;0.63;0.60;;;;;;;;;;5119872;28;20609;-68
2022/10/17 03:59:01;;;;;;;0.80;0.80;;;;;;;;;;5119660;28;20217;-68
2022/10/17 04:01:31;;;;;;;0.70;0.70;;;;;;;;;;5118816;28;20571;-68
2022/10/17 04:03:58;;;;;;;0.75;0.70;;;;;;;;;;5119710;28;20206;-68
2022/10/17 04:06:27;;;;;;;0.70;0.70;;;;;;;;;;5119154;28;20281;-67
2022/10/17 04:08:54;;;;;;;0.60;0.60;;;;;;;;;;5118613;28;20212;-67
2022/10/17 04:11:22;;;;;;;0.60;0.60;;;;;;;;;;5119258;28;20199;-68
2022/10/17 04:13:53;;;;;;;0.70;0.70;;;;;;;;;;5119148;28;20555;-67
2022/10/17 04:16:21;;;;;;;0.60;0.60;;;;;;;;;;5118682;28;20263;-68
2022/10/17 04:18:53;;;;;;;1.50;0.60;;;;;;;;;;5118560;28;20295;-67
2022/10/17 04:21:20;;;;;;;0.77;0.77;;;;;;;;;;5118589;28;20224;-67
2022/10/17 04:23:48;;;;;;;0.82;0.80;;;;;;;;;;5118323;28;20258;-67
2022/10/17 04:26:15;;;;;;;0.70;0.70;;;;;;;;;;5118703;28;20345;-68
2022/10/17 04:28:43;;;;;;;0.60;0.60;;;;;;;;;;5118549;28;20289;-67
2022/10/17 04:31:12;;;;;;;0.50;0.50;;;;;;;;;;5113606;28;20210;-67
2022/10/17 04:33:40;;;;;;;0.52;0.52;;;;;;;;;;5114600;28;20235;-68
2022/10/17 04:36:11;;;;;;;0.60;0.60;;;;;;;;;;5117684;28;20235;-67
2022/10/17 04:38:38;;;;;;;0.70;0.70;;;;;;;;;;5118058;28;20678;-67
2022/10/17 04:41:07;;;;;;;0.50;0.50;;;;;;;;;;5136085;27;20612;-68
2022/10/17 04:43:35;;;;;;;0.40;0.40;;;;;;;;;;5139065;27;20259;-68
2022/10/17 04:46:03;;;;;;;0.63;0.60;;;;;;;;;;5130327;27;20226;-67
2022/10/17 04:48:31;;;;;;;0.57;0.57;;;;;;;;;;5138372;27;20293;-67
2022/10/17 04:51:00;;;;;;;0.63;0.63;;;;;;;;;;5138253;27;20278;-67
2022/10/17 04:53:31;;;;;;;0.60;0.60;;;;;;;;;;5138818;27;20202;-67
2022/10/17 04:55:59;;;;;;;1.60;0.73;;;;;;;;;;5138237;27;20274;-68
2022/10/17 04:58:26;;;;;;;0.60;0.60;;;;;;;;;;5139014;27;20293;-68
2022/10/17 05:00:54;;;;;;;0.60;0.60;;;;;;;;;;5124759;27;20217;-68
2022/10/17 05:03:21;;;;;;;0.60;0.60;;;;;;;;;;5139038;27;20202;-68
2022/10/17 05:05:49;;;;;;;0.50;0.50;;;;;;;;;;5139000;27;20203;-68
2022/10/17 05:08:16;;;;;;;0.60;0.60;;;;;;;;;;5139024;27;20691;-68
2022/10/17 05:10:46;;;;;;;0.70;0.63;;;;;;;;;;5137820;27;20289;-67
2022/10/17 05:13:13;;;;;;;0.60;0.60;;;;;;;;;;5138618;27;20213;-67
2022/10/17 05:15:41;;;;;;;0.60;0.60;;;;;;;;;;5138259;27;20210;-67
2022/10/17 05:18:08;;;;;;;0.63;0.63;;;;;;;;;;5135618;27;20218;-67
2022/10/17 05:20:35;;;;;;;0.82;0.52;;;;;;;;;;5137863;27;20260;-68
2022/10/17 05:23:03;;;;;;;0.65;0.65;;;;;;;;;;5129460;27;20292;-67
2022/10/17 05:25:31;;;;;;;0.82;0.60;;;;;;;;;;5138604;27;20202;-67
2022/10/17 05:28:00;;;;;;;0.57;0.57;;;;;;;;;;5138038;27;20582;-67
2022/10/17 05:30:27;;;;;;;0.77;0.57;;;;;;;;;;5137609;27;20658;-66
2022/10/17 05:32:55;;;;;;;0.40;0.40;;;;;;;;;;5137592;27;20257;-67
2022/10/17 05:35:22;;;;;;;0.95;0.45;;;;;;;;;;5136840;27;20301;-67
2022/10/17 05:37:50;;;;;;;0.70;0.70;;;;;;;;;;5121809;27;20684;-67
2022/10/17 05:40:18;;;;;;;0.60;0.60;;;;;;;;;;5124679;27;20199;-68
2022/10/17 05:42:48;;;;;;;2.13;0.60;;;;;;;;;;5134955;27;20198;-68
2022/10/17 05:45:17;;;;;;;2.30;0.60;;;;;;;;;;5135885;27;20230;-68
2022/10/17 05:47:45;;;;;;;1.60;0.75;;;;;;;;;;5135222;27;20575;-67
2022/10/17 05:50:13;;;;;;;2.25;0.75;;;;;;;;;;5136820;27;20301;-67
2022/10/17 05:52:40;;;;;;;0.98;0.60;;;;;;;;;;5135840;27;20209;-67
2022/10/17 05:55:09;;;;;;;0.73;0.60;;;;;;;;;;5137155;27;20202;-67
2022/10/17 05:57:36;;;;;;;1.15;0.60;;;;;;;;;;5137577;27;20292;-67
2022/10/17 06:00:04;;;;;;;0.63;0.60;;;;;;;;;;5137811;27;20267;-67
2022/10/17 06:02:33;;;;;;;2.17;0.80;;;;;;;;;;5137176;28;20255;-68
2022/10/17 06:05:01;;;;;;;0.80;0.70;;;;;;;;;;5136753;28;20212;-67
2022/10/17 06:07:28;;;;;;;1.23;0.52;;;;;;;;;;5136646;28;20589;-66
2022/10/17 06:09:57;;;;;;;0.70;0.70;;;;;;;;;;5136447;28;20614;-69
2022/10/17 06:12:25;;;;;;;3.45;0.55;;;;;;;;;;5136491;28;20203;-67
2022/10/17 06:14:52;;;;;;;0.52;0.52;;;;;;;;;;5136047;28;20600;-67
2022/10/17 06:17:20;;;;;;;0.57;0.57;;;;;;;;;;5124699;28;20230;-67
2022/10/17 06:19:48;;;;;;;0.77;0.60;;;;;;;;;;5134952;27;20241;-67
2022/10/17 06:22:16;;;;;;;0.60;0.60;;;;;;;;;;5135019;27;20198;-67
2022/10/17 06:24:44;;;;;;;2.88;0.77;;;;;;;;;;5135800;27;20294;-67
2022/10/17 06:27:11;;;;;;;1.20;0.70;;;;;;;;;;5136423;28;20240;-67
2022/10/17 06:29:39;;;;;;;0.52;0.47;;;;;;;;;;5136341;28;20281;-67
2022/10/17 06:32:06;;;;;;;0.63;0.60;;;;;;;;;;5137185;28;20206;-67
2022/10/17 06:34:34;;;;;;;1.38;0.60;;;;;;;;;;5134991;28;20298;-67
2022/10/17 06:37:03;;;;;;;0.60;0.60;;;;;;;;;;5136484;27;20297;-67
2022/10/17 06:39:32;;;;;;;0.70;0.70;;;;;;;;;;5135940;28;20289;-67
2022/10/17 06:42:00;;;;;;;1.20;0.60;;;;;;;;;;5135139;28;20199;-67
2022/10/17 06:44:30;;;;;;;1.38;0.50;;;;;;;;;;5135120;28;20194;-67
2022/10/17 06:46:58;;;;;;;1.00;0.60;;;;;;;;;;5135478;27;20222;-67
2022/10/17 06:49:25;;;;;;;1.58;0.65;;;;;;;;;;5134646;27;20202;-66
2022/10/17 06:51:53;;;;;;;1.02;0.70;;;;;;;;;;5134206;28;20582;-67
2022/10/17 06:54:22;;;;;;;0.80;0.52;;;;;;;;;;5134889;28;20285;-67
2022/10/17 06:56:49;;;;;;;1.23;0.85;;;;;;;;;;5135181;28;20259;-67
2022/10/17 06:59:17;;;;;;;2.75;0.77;;;;;;;;;;5134908;28;20374;-68
2022/10/17 07:01:44;;;;;;;0.50;0.50;;;;;;;;;;5135579;28;20301;-67
2022/10/17 07:04:12;;;;;;;0.57;0.50;;;;;;;;;;5135527;27;20287;-67
2022/10/17 07:06:39;;;;;;;1.67;0.60;;;;;;;;;;5139710;27;20248;-67
2022/10/17 07:09:07;;;;;;;0.65;0.65;;;;;;;;;;5137538;27;20259;-68
2022/10/17 07:11:36;;;;;;;0.80;0.65;;;;;;;;;;5138778;27;20332;-67
2022/10/17 07:14:03;;;;;;;1.20;0.68;;;;;;;;;;5138194;27;20261;-67
2022/10/17 07:16:31;;;;;;;1.30;0.60;;;;;;;;;;5138930;27;20258;-67
2022/10/17 07:18:58;;;;;;;1.33;0.55;;;;;;;;;;5136056;27;20302;-67
2022/10/17 07:21:26;;;;;;;0.50;0.50;;;;;;;;;;5135604;27;20209;-68
2022/10/17 07:23:53;;;;;;;1.17;0.80;;;;;;;;;;5138222;27;20206;-68
2022/10/17 07:26:21;;;;;;;0.55;0.55;;;;;;;;;;5138798;27;20649;-67
2022/10/17 07:28:52;;;;;;;0.95;0.68;;;;;;;;;;5138459;27;20280;-68
2022/10/17 07:31:21;;;;;;;1.40;0.60;;;;;;;;;;5139151;27;20248;-67
2022/10/17 07:33:49;;;;;;;1.67;0.60;;;;;;;;;;5138649;27;20251;-67
2022/10/17 07:36:16;;;;;;;1.40;0.50;;;;;;;;;;5139645;27;20199;-67
2022/10/17 07:38:44;;;;;;;1.85;0.68;;;;;;;;;;5138880;27;20280;-67
2022/10/17 07:41:13;;;;;;;0.70;0.70;;;;;;;;;;5135581;27;20208;-67
2022/10/17 07:43:41;;;;;;;1.67;0.80;;;;;;;;;;5137489;27;20194;-67
2022/10/17 07:46:11;;;;;;;1.05;0.60;;;;;;;;;;5136266;27;20826;-68
2022/10/17 07:48:41;;;;;;;0.85;0.60;;;;;;;;;;5137165;27;20225;-68
2022/10/17 07:51:09;;;;;;;0.43;0.43;;;;;;;;;;5137604;27;20230;-68
2022/10/17 07:53:36;;;;;;;0.60;0.60;;;;;;;;;;5137356;27;20293;-68
2022/10/17 07:56:05;;;;;;;0.50;0.50;;;;;;;;;;5137042;27;20309;-68
2022/10/17 07:58:33;;;;;;;1.02;0.80;;;;;;;;;;5136988;27;20661;-68
2022/10/17 08:01:01;;;;;;;1.13;0.60;;;;;;;;;;5137535;27;20205;-68
2022/10/17 08:03:30;;;;;;;0.73;0.60;;;;;;;;;;5137091;27;20244;-67
2022/10/17 08:05:58;;;;;;;0.55;0.52;;;;;;;;;;5136486;27;20286;-68
2022/10/17 08:08:26;;;;;;;0.68;0.55;;;;;;;;;;5136841;27;20218;-68
2022/10/17 08:10:54;;;;;;;1.48;0.68;;;;;;;;;;5137992;27;20210;-67
2022/10/17 08:13:22;;;;;;;0.57;0.57;;;;;;;;;;5136902;27;20262;-67
2022/10/17 08:15:49;;;;;;;0.57;0.50;;;;;;;;;;5137159;27;20234;-67
2022/10/17 08:18:17;;;;;;;0.50;0.50;;;;;;;;;;5136025;27;20237;-68
2022/10/17 08:20:47;;;;;;;0.95;0.60;;;;;;;;;;5137046;27;20247;-68
2022/10/17 08:23:15;;;;;;;0.60;0.60;;;;;;;;;;5136724;27;20208;-68
2022/10/17 08:25:42;;;;;;;0.80;0.52;;;;;;;;;;5136495;27;20198;-68
2022/10/17 08:28:10;;;;;;;0.70;0.70;;;;;;;;;;5135936;27;20226;-68
2022/10/17 08:30:37;;;;;;;0.63;0.60;;;;;;;;;;5137212;27;20297;-68
2022/10/17 08:33:05;;;;;;;0.57;0.57;;;;;;;;;;5135796;27;20285;-67
2022/10/17 08:35:32;;;;;;;0.50;0.50;;;;;;;;;;5137064;27;20198;-68
2022/10/17 08:38:01;;;;;;;1.60;0.70;;;;;;;;;;5136102;27;20191;-68
2022/10/17 08:40:32;;;;;;;0.50;0.50;;;;;;;;;;5137221;27;20245;-68
2022/10/17 08:43:19;;;;;;;0.77;0.70;;;;;;;;;;5136054;27;20697;-68
2022/10/17 08:45:49;;;;;;;0.60;0.60;;;;;;;;;;5135013;27;20239;-68
2022/10/17 08:48:18;;;;;;;0.50;0.50;;;;;;;;;;5135656;27;20589;-68
2022/10/17 08:50:47;;;;;;;0.60;0.60;;;;;;;;;;5134772;27;20281;-67
2022/10/17 08:53:19;;;;;;;0.65;0.65;;;;;;;;;;5136013;27;20293;-68
2022/10/17 08:55:48;;;;;;;0.60;0.60;;;;;;;;;;5129307;27;20261;-68
2022/10/17 08:58:16;;;;;;;0.73;0.60;;;;;;;;;;5135865;27;20478;-68
2022/10/17 09:00:46;;;;;;;0.57;0.57;;;;;;;;;;5135551;27;20206;-68
2022/10/17 09:03:18;;;;;;;0.85;0.70;;;;;;;;;;5135212;27;20574;-68
2022/10/17 09:05:50;;;;;;;0.50;0.50;;;;;;;;;;5136339;27;20302;-68
2022/10/17 09:08:35;;;;;;;0.82;0.60;;;;;;;;;;5134305;27;20860;-68
2022/10/17 09:11:06;;;;;;;0.80;0.80;;;;;;;;;;5135851;27;20255;-68
2022/10/17 09:13:40;;;;;;;1.88;0.77;;;;;;;;;;5135497;27;20201;-67
2022/10/17 09:16:23;;;;;;;0.55;0.55;;;;;;;;;;5134607;27;20198;-68
2022/10/17 09:18:57;;;;;;;0.70;0.70;;;;;;;;;;5135061;27;20209;-67
2022/10/17 09:21:27;;;;;;;0.82;0.80;;;;;;;;;;5133877;27;20254;-68
2022/10/17 09:23:58;;;;;;;0.80;0.80;;;;;;;;;;5134419;27;20194;-67
2022/10/17 09:26:26;;;;;;;0.70;0.70;;;;;;;;;;5134321;27;20259;-68
2022/10/17 09:28:57;;;;;;;1.00;0.60;;;;;;;;;;5135074;27;20249;-68
2022/10/17 09:31:26;;;;;;;0.60;0.60;;;;;;;;;;5134872;27;20491;-68
2022/10/17 09:33:55;;;;;;;1.10;0.60;;;;;;;;;;5134489;27;20198;-67
2022/10/17 09:36:24;;;;;;;0.90;0.90;;;;;;;;;;5135231;27;20671;-68
2022/10/17 09:38:53;;;;;;;0.70;0.70;;;;;;;;;;5135392;27;20237;-68
2022/10/17 09:41:23;;;;;;;0.80;0.77;;;;;;;;;;5134259;27;20616;-68
2022/10/17 09:43:53;;;;;;;0.60;0.60;;;;;;;;;;5135348;27;20289;-68
2022/10/17 09:46:24;;;;;;;0.90;0.80;;;;;;;;;;5134636;27;20198;-68
2022/10/17 09:48:53;;;;;;;0.70;0.70;;;;;;;;;;5135006;27;20223;-68
2022/10/17 09:51:20;;;;;;;0.77;0.77;;;;;;;;;;5133839;28;20502;-68
2022/10/17 09:53:50;;;;;;;0.98;0.70;;;;;;;;;;5132189;27;20225;-69
2022/10/17 09:56:18;;;;;;;0.70;0.70;;;;;;;;;;5134366;27;20195;-68
2022/10/17 09:58:49;;;;;;;0.80;0.80;;;;;;;;;;5134547;27;20281;-68
2022/10/17 10:01:18;;;;;;;0.95;0.80;;;;;;;;;;5135903;28;20245;-68
2022/10/17 10:03:46;;;;;;;0.70;0.70;;;;;;;;;;5135374;28;20190;-68
2022/10/17 10:06:14;;;;;;;0.70;0.70;;;;;;;;;;5133997;28;20297;-68
2022/10/17 10:08:49;;;;;;;0.77;0.77;;;;;;;;;;5134313;27;20254;-68
2022/10/17 10:11:17;;;;;;;0.80;0.70;;;;;;;;;;5134225;28;20202;-68
2022/10/17 10:13:45;;;;;;;0.98;0.77;;;;;;;;;;5133465;28;20283;-68
2022/10/17 10:16:21;;;;;;;0.80;0.80;;;;;;;;;;5134214;27;20206;-68
2022/10/17 10:18:49;;;;;;;0.68;0.68;;;;;;;;;;5133626;28;20317;-68
2022/10/17 10:21:18;;;;;;;0.90;0.90;;;;;;;;;;5134004;28;20211;-68
2022/10/17 10:23:46;;;;;;;0.90;0.80;;;;;;;;;;5134288;28;20273;-68
2022/10/17 10:26:24;;;;;;;1.15;0.85;;;;;;;;;;5134026;28;20198;-68
2022/10/17 10:28:53;;;;;;;1.05;0.70;;;;;;;;;;5134364;28;20221;-68
2022/10/17 10:31:28;;;;;;;1.52;0.90;;;;;;;;;;5134949;27;20205;-68
2022/10/17 10:33:56;;;;;;;0.80;0.80;;;;;;;;;;5134498;27;20289;-68
2022/10/17 10:36:24;;;;;;;0.77;0.70;;;;;;;;;;5133200;27;20277;-69
2022/10/17 10:38:55;;;;;;;0.93;0.80;;;;;;;;;;5118874;27;20235;-68
2022/10/17 10:41:26;;;;;;;1.33;1.00;;;;;;;;;;5138004;27;20198;-68
2022/10/17 10:43:56;;;;;;;1.00;1.00;;;;;;;;;;5137037;27;20202;-68
2022/10/17 10:46:24;;;;;;;1.80;0.90;;;;;;;;;;5137077;27;20676;-68
2022/10/17 10:48:54;;;;;;;1.20;1.00;;;;;;;;;;5122981;27;20218;-68
2022/10/17 10:51:24;;;;;;;0.90;0.88;;;;;;;;;;5138397;27;20233;-67
2022/10/17 10:53:53;;;;;;;1.23;1.00;;;;;;;;;;5120728;27;20584;-68
2022/10/17 10:56:21;;;;;;;0.82;0.82;;;;;;;;;;5137448;27;20230;-68
2022/10/17 10:58:52;;;;;;;1.00;1.00;;;;;;;;;;5137912;27;20624;-68
2022/10/17 11:01:22;;;;;;;1.13;0.90;;;;;;;;;;5138129;27;20210;-68
2022/10/17 11:03:56;;;;;;;1.17;1.00;;;;;;;;;;5137612;27;20213;-68
2022/10/17 11:06:27;;;;;;;1.05;0.95;;;;;;;;;;5135672;27;20241;-69
2022/10/17 11:08:59;;;;;;;0.98;0.98;;;;;;;;;;5137471;27;20249;-68
2022/10/17 11:11:28;;;;;;;1.20;1.10;;;;;;;;;;5137338;27;20194;-68
2022/10/17 11:13:59;;;;;;;1.00;1.00;;;;;;;;;;5137797;27;20571;-68
2022/10/17 11:16:30;;;;;;;0.90;0.90;;;;;;;;;;5137360;27;20198;-68
2022/10/17 11:19:03;;;;;;;0.90;0.90;;;;;;;;;;5136714;27;20932;-68
2022/10/17 11:21:37;;;;;;;1.27;1.17;;;;;;;;;;5136673;27;20229;-68
2022/10/17 11:24:09;;;;;;;0.95;0.95;;;;;;;;;;5136792;27;20297;-69
2022/10/17 11:26:46;;;;;;;1.17;1.08;;;;;;;;;;5135700;27;20619;-68
2022/10/17 11:29:14;;;;;;;0.95;0.90;;;;;;;;;;5137140;27;20313;-68
2022/10/17 11:31:44;;;;;;;1.00;0.95;;;;;;;;;;5137870;27;20463;-68
2022/10/17 11:34:18;;;;;;;1.10;1.00;;;;;;;;;;5136440;27;20234;-69
2022/10/17 11:36:47;;;;;;;0.80;0.80;;;;;;;;;;5135837;27;20194;-68
2022/10/17 11:39:16;;;;;;;0.98;0.90;;;;;;;;;;5136754;27;20196;-68
2022/10/17 11:41:45;;;;;;;1.15;0.88;;;;;;;;;;5134841;27;20297;-68
2022/10/17 11:44:15;;;;;;;1.15;1.00;;;;;;;;;;5135541;27;20199;-68
2022/10/17 11:46:43;;;;;;;1.15;1.00;;;;;;;;;;5134465;27;20199;-68
2022/10/17 11:49:14;;;;;;;1.00;0.90;;;;;;;;;;5133821;27;20214;-68
2022/10/17 11:51:44;;;;;;;1.23;0.90;;;;;;;;;;5135997;27;20194;-69
2022/10/17 11:54:14;;;;;;;1.20;1.10;;;;;;;;;;5137240;27;20588;-68
2022/10/17 11:56:47;;;;;;;0.70;0.70;;;;;;;;;;5135587;27;20226;-69
2022/10/17 11:59:23;;;;;;;1.20;1.10;;;;;;;;;;5138327;27;20199;-69
2022/10/17 12:01:53;;;;;;;1.02;0.93;;;;;;;;;;5137793;27;20296;-69
2022/10/17 12:04:27;;;;;;;1.20;1.10;;;;;;;;;;5136711;27;20229;-68
2022/10/17 12:07:01;;;;;;;0.98;0.90;;;;;;;;;;5137123;27;20205;-68
2022/10/17 12:09:33;;;;;;;0.98;0.98;;;;;;;;;;5136586;27;20226;-68
2022/10/17 12:12:02;;;;;;;1.27;1.17;;;;;;;;;;5137754;27;20237;-69
2022/10/17 12:14:37;;;;;;;1.10;1.00;;;;;;;;;;5136858;27;20238;-68
2022/10/17 12:17:05;;;;;;;1.10;1.00;;;;;;;;;;5137461;27;20262;-69
2022/10/17 12:19:36;;;;;;;1.02;0.95;;;;;;;;;;5135268;27;20286;-68
2022/10/17 12:22:06;;;;;;;1.13;0.80;;;;;;;;;;5128880;27;20198;-69
2022/10/17 12:24:40;;;;;;;1.10;1.00;;;;;;;;;;5136573;27;20290;-69
2022/10/17 12:27:25;;;;;;;1.15;1.05;;;;;;;;;;5136270;27;20237;-69
2022/10/17 12:29:58;;;;;;;1.20;1.10;;;;;;;;;;5135298;27;20585;-69
2022/10/17 12:32:26;;;;;;;0.90;0.90;;;;;;;;;;5136373;27;20233;-69
2022/10/17 12:34:55;;;;;;;0.90;0.90;;;;;;;;;;5125460;27;20282;-69
2022/10/17 12:37:42;;;;;;;1.00;0.90;;;;;;;;;;5134501;27;20629;-69
2022/10/17 12:40:26;;;;;;;0.90;0.90;;;;;;;;;;5135628;27;20205;-74
2022/10/17 12:42:53;;;;;;;1.10;1.00;;;;;;;;;;5128383;27;20199;-69
2022/10/17 12:45:39;;;;;;;0.90;0.90;;;;;;;;;;5135828;27;20187;-69
2022/10/17 12:48:09;;;;;;;1.30;1.20;;;;;;;;;;5135357;27;20285;-69
2022/10/17 12:50:56;;;;;;;1.45;1.10;;;;;;;;;;5115736;28;20262;-70
2022/10/17 12:53:27;;;;;;;1.30;1.20;;;;;;;;;;5122790;27;20259;-69
2022/10/17 12:56:00;;;;;;;1.15;1.10;;;;;;;;;;5134017;27;20281;-70
2022/10/17 12:58:28;;;;;;;1.10;1.02;;;;;;;;;;5134950;27;20251;-70
2022/10/17 13:00:56;;;;;;;2.25;1.40;;;;;;;;;;5134615;27;20715;-70
2022/10/17 13:03:25;;;;;;;1.35;1.25;;;;;;;;;;5134962;27;20206;-70
2022/10/17 13:05:54;;;;;;;1.75;1.00;;;;;;;;;;5125602;27;20255;-69
2022/10/17 13:08:23;;;;;;;2.55;1.48;;;;;;;;;;5128271;27;20210;-69
2022/10/17 13:10:53;;;;;;;1.40;1.30;;;;;;;;;;5132986;27;20209;-70
2022/10/17 13:13:21;;;;;;;3.85;1.63;;;;;;;;;;5133679;27;20477;-69
2022/10/17 13:15:49;;;;;;;1.60;1.50;;;;;;;;;;5133325;27;20319;-69
2022/10/17 13:18:22;;;;;;;1.42;1.23;;;;;;;;;;5133251;27;20718;-69
2022/10/17 13:20:56;;;;;;;2.30;1.27;;;;;;;;;;5135224;27;20206;-71
2022/10/17 13:23:24;;;;;;;2.38;1.50;;;;;;;;;;5134247;27;20565;-69
2022/10/17 13:26:04;;;;;;;1.83;1.60;;;;;;;;;;5134170;27;20194;-69
2022/10/17 13:28:31;;;;;;;1.50;1.40;;;;;;;;;;5134978;27;20290;-69
2022/10/17 13:30:59;;;;;;;1.98;1.40;;;;;;;;;;5133744;27;20202;-69
2022/10/17 13:33:30;;;;;;;1.70;1.60;;;;;;;;;;5110583;28;20248;-70
2022/10/17 13:35:57;;;;;;;1.70;1.60;;;;;;;;;;5133838;27;20195;-72
2022/10/17 13:38:27;;;;;;;1.60;1.50;;;;;;;;;;5134458;27;20198;-71
2022/10/17 13:40:54;;;;;;;1.50;1.40;;;;;;;;;;5133489;27;20194;-69
2022/10/17 13:43:24;;;;;;;1.65;1.55;;;;;;;;;;5134326;27;20247;-71
2022/10/17 13:45:52;;;;;;;1.50;1.40;;;;;;;;;;5133642;27;20197;-71
2022/10/17 13:48:21;;;;;;;1.52;1.42;;;;;;;;;;5133980;27;20187;-70
2022/10/17 13:50:50;;;;;;;1.85;1.50;;;;;;;;;;5134453;27;20249;-70
2022/10/17 13:53:19;;;;;;;2.13;1.50;;;;;;;;;;5134553;27;20194;-70
2022/10/17 13:55:57;;;;;;;1.70;1.60;;;;;;;;;;5132947;27;20278;-70
2022/10/17 13:58:27;;;;;;;2.28;1.60;;;;;;;;;;5135433;28;20194;-70
2022/10/17 14:00:55;;;;;;;3.58;1.60;;;;;;;;;;5134929;28;20182;-71
2022/10/17 14:03:23;;;;;;;1.80;1.70;;;;;;;;;;5133027;27;20220;-70
2022/10/17 14:06:04;;;;;;;1.80;1.70;;;;;;;;;;5133475;27;20218;-71
2022/10/17 14:08:33;;;;;;;1.60;1.50;;;;;;;;;;5133544;28;20222;-72
2022/10/17 14:11:01;;;;;;;1.40;1.30;;;;;;;;;;5134629;28;20222;-70
2022/10/17 14:13:34;;;;;;;1.67;1.50;;;;;;;;;;5135288;27;20285;-71
2022/10/17 14:16:03;;;;;;;1.73;1.50;;;;;;;;;;5137319;27;20198;-69
2022/10/17 14:18:31;;;;;;;1.88;1.77;;;;;;;;;;5137285;27;20285;-68
2022/10/17 14:20:59;;;;;;;1.88;1.52;;;;;;;;;;5136908;27;20753;-69
2022/10/17 14:23:31;;;;;;;2.35;1.67;;;;;;;;;;5137637;27;20191;-71
2022/10/17 14:26:06;;;;;;;1.80;1.70;;;;;;;;;;5137252;27;20577;-70
2022/10/17 14:28:35;;;;;;;1.70;1.60;;;;;;;;;;5136644;27;20235;-70
2022/10/17 14:31:14;;;;;;;2.70;1.80;;;;;;;;;;5137997;27;20221;-69
2022/10/17 14:33:44;;;;;;;1.80;1.70;;;;;;;;;;5137060;27;20186;-70
2022/10/17 14:36:12;;;;;;;1.77;1.67;;;;;;;;;;5138334;27;20286;-69
2022/10/17 14:38:40;;;;;;;1.73;1.38;;;;;;;;;;5138764;27;20195;-69
2022/10/17 14:41:10;;;;;;;2.00;1.60;;;;;;;;;;5139582;27;20208;-70
2022/10/17 14:43:39;;;;;;;1.70;1.40;;;;;;;;;;5137909;27;20201;-69
2022/10/17 14:46:06;;;;;;;1.80;1.70;;;;;;;;;;5137526;27;20255;-70
2022/10/17 14:48:34;;;;;;;2.13;1.95;;;;;;;;;;5137573;27;20296;-68
2022/10/17 14:51:09;;;;;;;1.80;1.70;;;;;;;;;;5137441;27;20777;-69
2022/10/17 14:53:36;;;;;;;1.52;1.42;;;;;;;;;;5138213;27;20229;-71
2022/10/17 14:56:05;;;;;;;2.08;1.90;;;;;;;;;;5138099;27;20861;-69
2022/10/17 14:58:34;;;;;;;1.90;1.80;;;;;;;;;;5137894;27;20578;-70